createdAt,value
2023-02-18T00:01:42.642Z,9.45
2023-02-18T00:04:10.176Z,9.73
2023-02-18T00:06:38.774Z,10.20
2023-02-18T00:09:06.728Z,10.48
2023-02-18T00:11:35.486Z,11.55
2023-02-18T00:14:04.343Z,10.70
2023-02-18T00:16:33.049Z,11.55
2023-02-18T00:19:02.943Z,10.50
2023-02-18T00:21:30.564Z,9.50
2023-02-18T00:23:57.886Z,10.77
2023-02-18T00:26:25.491Z,9.75
2023-02-18T00:28:53.080Z,11.27
2023-02-18T00:31:21.624Z,7.80
2023-02-18T00:33:50.274Z,10.07
2023-02-18T00:36:18.770Z,10.70
2023-02-18T00:38:46.651Z,11.15
2023-02-18T00:41:14.170Z,10.98
2023-02-18T00:43:41.541Z,9.57
2023-02-18T00:46:09.271Z,8.90
2023-02-18T00:48:37.170Z,8.73
2023-02-18T00:51:06.387Z,7.00
2023-02-18T00:53:33.862Z,8.27
2023-02-18T00:56:01.413Z,9.63
2023-02-18T00:58:28.746Z,8.55
2023-02-18T01:00:56.565Z,8.70
2023-02-18T01:03:24.729Z,7.82
2023-02-18T01:05:52.529Z,8.60
2023-02-18T01:08:22.099Z,7.07
2023-02-18T01:10:50.953Z,7.32
2023-02-18T01:13:18.544Z,7.72
2023-02-18T01:15:46.320Z,7.35
2023-02-18T01:18:14.326Z,7.85
2023-02-18T01:20:42.944Z,7.05
2023-02-18T01:23:10.465Z,8.18
2023-02-18T01:25:39.240Z,7.50
2023-02-18T01:28:07.224Z,7.07
2023-02-18T01:30:35.245Z,7.07
2023-02-18T01:33:02.601Z,8.00
2023-02-18T01:35:29.923Z,7.00
2023-02-18T01:37:57.193Z,7.97
2023-02-18T01:40:26.260Z,5.55
2023-02-18T01:42:54.954Z,8.40
2023-02-18T01:45:52.449Z,6.78
2023-02-18T01:48:22.296Z,8.30
2023-02-18T01:50:50.610Z,7.60
2023-02-18T01:53:19.549Z,8.93
2023-02-18T01:55:48.460Z,7.93
2023-02-18T01:58:17.535Z,8.82
2023-02-18T02:00:44.995Z,9.40
2023-02-18T02:03:12.385Z,8.43
2023-02-18T02:05:39.727Z,7.53
2023-02-18T02:08:07.502Z,8.57
2023-02-18T02:10:44.684Z,8.45
2023-02-18T02:13:15.057Z,8.30
2023-02-18T02:15:45.796Z,8.60
2023-02-18T02:18:25.603Z,8.00
2023-02-18T02:21:07.743Z,9.07
2023-02-18T02:23:41.206Z,9.00
2023-02-18T02:26:21.881Z,10.13
2023-02-18T02:29:02.043Z,10.20
2023-02-18T02:31:54.640Z,9.82
2023-02-18T02:34:40.295Z,11.27
2023-02-18T02:37:11.274Z,11.65
2023-02-18T02:39:42.944Z,9.82
2023-02-18T02:42:16.697Z,10.60
2023-02-18T02:44:48.427Z,12.02
2023-02-18T02:47:20.847Z,11.23
2023-02-18T02:49:54.518Z,11.77
2023-02-18T02:52:24.668Z,10.73
2023-02-18T02:54:52.681Z,11.60
2023-02-18T02:57:38.490Z,10.40
2023-02-18T03:00:09.946Z,9.77
2023-02-18T03:02:41.613Z,10.27
2023-02-18T03:05:15.241Z,9.30
2023-02-18T03:08:03.326Z,8.32
2023-02-18T03:10:37.519Z,7.55
2023-02-18T03:13:08.497Z,6.38
2023-02-18T03:15:39.403Z,5.30
2023-02-18T03:18:09.453Z,6.85
2023-02-18T03:20:40.352Z,6.65
2023-02-18T03:23:09.050Z,6.72
2023-02-18T03:25:38.573Z,6.70
2023-02-18T03:28:09.433Z,6.82
2023-02-18T03:30:38.986Z,6.30
2023-02-18T03:33:07.792Z,4.97
2023-02-18T03:35:36.330Z,5.43
2023-02-18T03:38:08.151Z,5.97
2023-02-18T03:40:35.502Z,5.30
2023-02-18T03:43:02.924Z,5.28
2023-02-18T03:45:30.225Z,4.47
2023-02-18T03:47:57.781Z,4.43
2023-02-18T03:50:25.172Z,3.90
2023-02-18T03:52:52.595Z,3.70
2023-02-18T03:55:21.272Z,3.40
2023-02-18T03:57:48.606Z,2.90
2023-02-18T04:00:16.415Z,2.97
2023-02-18T04:02:43.847Z,2.70
2023-02-18T04:05:11.346Z,2.38
2023-02-18T04:07:38.661Z,2.40
2023-02-18T04:10:06.558Z,2.20
2023-02-18T04:12:35.256Z,1.85
2023-02-18T04:15:02.622Z,1.92
2023-02-18T04:17:29.953Z,1.30
2023-02-18T04:19:57.250Z,1.88
2023-02-18T04:22:24.558Z,1.67
2023-02-18T04:24:51.893Z,1.98
2023-02-18T04:27:19.207Z,1.40
2023-02-18T04:29:48.000Z,1.50
2023-02-18T04:32:15.334Z,1.60
2023-02-18T04:34:42.768Z,1.75
2023-02-18T04:37:10.082Z,1.30
2023-02-18T04:39:37.415Z,1.60
2023-02-18T04:42:08.693Z,1.50
2023-02-18T04:44:36.194Z,1.40
2023-02-18T04:47:04.991Z,1.77
2023-02-18T04:49:32.314Z,1.25
2023-02-18T04:51:59.824Z,1.60
2023-02-18T04:54:27.126Z,1.48
2023-02-18T04:56:54.503Z,1.60
2023-02-18T04:59:21.847Z,1.75
2023-02-18T05:01:49.179Z,1.45
2023-02-18T05:04:18.406Z,1.45
2023-02-18T05:06:45.769Z,1.95
2023-02-18T05:09:13.126Z,2.20
2023-02-18T05:11:40.546Z,2.20
2023-02-18T05:14:07.814Z,2.00
2023-02-18T05:16:35.126Z,1.70
2023-02-18T05:19:02.567Z,2.95
2023-02-18T05:21:31.428Z,2.88
2023-02-18T05:23:58.742Z,2.90
2023-02-18T05:26:26.114Z,2.47
2023-02-18T05:28:53.392Z,3.17
2023-02-18T05:31:20.811Z,3.38
2023-02-18T05:33:48.205Z,3.78
2023-02-18T05:36:15.549Z,3.20
2023-02-18T05:38:44.218Z,3.75
2023-02-18T05:41:11.562Z,3.90
2023-02-18T05:43:52.835Z,3.42
2023-02-18T05:46:20.283Z,3.22
2023-02-18T05:48:47.707Z,2.70
2023-02-18T05:51:15.330Z,3.45
2023-02-18T05:53:44.187Z,3.45
2023-02-18T05:56:11.512Z,3.83
2023-02-18T05:58:38.814Z,3.20
2023-02-18T06:01:06.134Z,3.72
2023-02-18T06:03:33.423Z,2.85
2023-02-18T06:06:00.789Z,3.10
2023-02-18T06:08:28.201Z,3.47
2023-02-18T06:11:00.583Z,3.25
2023-02-18T06:13:27.906Z,3.40
2023-02-18T06:15:55.671Z,3.17
2023-02-18T06:18:23.334Z,3.65
2023-02-18T06:20:50.683Z,3.63
2023-02-18T06:23:18.089Z,3.67
2023-02-18T06:25:45.582Z,3.10
2023-02-18T06:28:14.253Z,3.50
2023-02-18T06:30:41.674Z,2.70
2023-02-18T06:33:09.105Z,2.25
2023-02-18T06:35:36.474Z,1.88
2023-02-18T06:38:04.030Z,1.73
2023-02-18T06:40:31.363Z,1.67
2023-02-18T06:42:58.768Z,1.48
2023-02-18T06:45:43.500Z,1.17
2023-02-18T06:48:12.251Z,1.33
2023-02-18T06:50:40.552Z,1.58
2023-02-18T06:53:08.972Z,0.93
2023-02-18T06:55:36.332Z,0.90
2023-02-18T06:58:03.790Z,0.93
2023-02-18T07:00:31.556Z,1.10
2023-02-18T07:02:59.066Z,1.00
2023-02-18T07:05:28.140Z,0.90
2023-02-18T07:07:55.676Z,0.98
2023-02-18T07:10:23.044Z,0.93
2023-02-18T07:12:50.692Z,1.20
2023-02-18T07:15:18.249Z,1.00
2023-02-18T07:17:45.510Z,1.50
2023-02-18T07:20:13.181Z,1.13
2023-02-18T07:22:41.836Z,1.00
2023-02-18T07:25:09.365Z,1.30
2023-02-18T07:27:36.640Z,1.27
2023-02-18T07:30:04.296Z,0.90
2023-02-18T07:32:31.618Z,1.52
2023-02-18T07:34:58.918Z,1.30
2023-02-18T07:37:26.211Z,1.20
2023-02-18T07:39:54.873Z,1.20
2023-02-18T07:42:22.298Z,1.40
2023-02-18T07:44:49.622Z,1.30
2023-02-18T07:47:19.527Z,0.90
2023-02-18T07:49:46.929Z,1.15
2023-02-18T07:52:14.198Z,1.10
2023-02-18T07:54:41.557Z,1.45
2023-02-18T07:57:10.497Z,1.38
2023-02-18T07:59:37.771Z,1.45
2023-02-18T08:02:05.320Z,1.20
2023-02-18T08:04:32.683Z,1.65
2023-02-18T08:07:00.020Z,1.92
2023-02-18T08:09:27.350Z,2.00
2023-02-18T08:11:54.679Z,3.13
2023-02-18T08:14:23.401Z,2.53
2023-02-18T08:16:51.008Z,2.65
2023-02-18T08:19:18.362Z,2.53
2023-02-18T08:21:45.852Z,2.17
2023-02-18T08:24:13.163Z,3.03
2023-02-18T08:26:48.709Z,3.17
2023-02-18T08:29:26.819Z,2.22
2023-02-18T08:31:55.091Z,3.10
2023-02-18T08:34:22.496Z,3.30
2023-02-18T08:36:49.787Z,2.83
2023-02-18T08:39:17.147Z,3.40
2023-02-18T08:41:44.507Z,3.05
2023-02-18T08:44:11.835Z,2.78
2023-02-18T08:46:40.511Z,1.95
2023-02-18T08:49:07.902Z,2.83
2023-02-18T08:51:35.399Z,3.42
2023-02-18T08:54:04.434Z,3.42
2023-02-18T08:56:32.443Z,2.28
2023-02-18T08:58:59.785Z,3.08
2023-02-18T09:01:27.300Z,1.92
2023-02-18T09:03:56.033Z,3.90
2023-02-18T09:06:23.713Z,3.55
2023-02-18T09:08:51.039Z,2.85
2023-02-18T09:11:19.459Z,2.42
2023-02-18T09:13:46.974Z,3.10
2023-02-18T09:16:15.693Z,3.05
2023-02-18T09:18:43.099Z,4.15
2023-02-18T09:21:13.132Z,3.15
2023-02-18T09:23:41.206Z,2.83
2023-02-18T09:26:09.904Z,2.67
2023-02-18T09:28:37.754Z,2.60
2023-02-18T09:31:06.200Z,2.70
2023-02-18T09:33:35.477Z,2.72
2023-02-18T09:36:02.818Z,3.08
2023-02-18T09:38:31.516Z,2.17
2023-02-18T09:41:01.000Z,2.47
2023-02-18T09:43:30.191Z,2.55
2023-02-18T09:45:57.568Z,2.58
2023-02-18T09:48:27.591Z,2.70
2023-02-18T09:50:55.197Z,3.20
2023-02-18T09:53:23.659Z,3.40
2023-02-18T09:55:53.720Z,3.05
2023-02-18T09:58:21.889Z,2.13
2023-02-18T10:00:50.914Z,2.53
2023-02-18T10:03:19.106Z,2.75
2023-02-18T10:05:50.882Z,3.17
2023-02-18T10:08:20.762Z,2.38
2023-02-18T10:10:48.186Z,2.75
2023-02-18T10:13:18.429Z,2.17
2023-02-18T10:15:46.650Z,2.60
2023-02-18T10:18:20.457Z,3.03
2023-02-18T10:20:48.596Z,2.97
2023-02-18T10:23:16.426Z,2.75
2023-02-18T10:25:45.791Z,2.55
2023-02-18T10:28:13.337Z,3.30
2023-02-18T10:30:43.788Z,3.13
2023-02-18T10:33:23.344Z,2.95
2023-02-18T10:35:53.756Z,2.40
2023-02-18T10:38:25.815Z,2.90
2023-02-18T10:40:59.945Z,2.13
2023-02-18T10:43:33.665Z,2.70
2023-02-18T10:46:05.167Z,3.15
2023-02-18T10:48:40.578Z,2.47
2023-02-18T10:51:15.989Z,2.67
2023-02-18T10:53:44.784Z,2.55
2023-02-18T10:56:32.322Z,3.00
2023-02-18T10:59:02.619Z,3.22
2023-02-18T11:01:32.249Z,3.67
2023-02-18T11:04:07.767Z,4.80
2023-02-18T11:06:38.796Z,3.67
2023-02-18T11:09:06.841Z,4.53
2023-02-18T11:11:35.242Z,2.85
2023-02-18T11:14:03.112Z,3.92
2023-02-18T11:16:39.275Z,4.30
2023-02-18T11:19:06.593Z,4.03
2023-02-18T11:21:36.043Z,3.72
2023-02-18T11:24:08.030Z,3.60
2023-02-18T11:26:36.893Z,4.50
2023-02-18T11:29:06.869Z,3.83
2023-02-18T11:31:41.800Z,3.50
2023-02-18T11:34:15.700Z,2.92
2023-02-18T11:36:43.227Z,3.67
2023-02-18T11:39:18.210Z,3.53
2023-02-18T11:41:48.555Z,3.67
2023-02-18T11:44:20.424Z,2.33
2023-02-18T11:46:58.927Z,3.75
2023-02-18T11:49:26.412Z,3.90
2023-02-18T11:51:53.872Z,2.90
2023-02-18T11:54:25.841Z,3.20
2023-02-18T11:56:57.195Z,3.55
2023-02-18T11:59:24.675Z,3.53
2023-02-18T12:01:53.022Z,4.07
2023-02-18T12:04:27.336Z,4.03
2023-02-18T12:07:01.960Z,3.20
2023-02-18T12:09:30.575Z,3.25
2023-02-18T12:12:00.246Z,4.30
2023-02-18T12:14:28.085Z,3.70
2023-02-18T12:17:05.185Z,4.05
2023-02-18T12:19:43.725Z,4.28
2023-02-18T12:22:14.838Z,4.40
2023-02-18T12:24:48.361Z,4.70
2023-02-18T12:27:19.253Z,4.40
2023-02-18T12:30:01.120Z,3.92
2023-02-18T12:32:42.864Z,4.10
2023-02-18T12:35:29.011Z,5.00
2023-02-18T12:38:06.562Z,3.90
2023-02-18T12:40:49.648Z,3.80
2023-02-18T12:43:23.352Z,4.60
2023-02-18T12:45:58.138Z,4.07
2023-02-18T12:51:10.861Z,3.50
2023-02-18T12:53:51.850Z,3.95
2023-02-18T12:56:40.197Z,2.95
2023-02-18T12:59:13.128Z,3.35
2023-02-18T13:01:45.002Z,2.75
2023-02-18T13:04:20.530Z,3.42
2023-02-18T13:07:09.620Z,3.80
2023-02-18T13:09:45.127Z,3.65
2023-02-18T13:12:15.865Z,3.80
2023-02-18T13:14:47.319Z,3.00
2023-02-18T13:17:16.698Z,4.22
2023-02-18T13:19:47.353Z,3.80
2023-02-18T13:22:16.393Z,3.20
2023-02-18T13:24:46.694Z,3.83
2023-02-18T13:27:18.448Z,3.45
2023-02-18T13:29:48.052Z,3.22
2023-02-18T13:32:19.495Z,3.50
2023-02-18T13:34:49.430Z,3.80
2023-02-18T13:37:21.230Z,3.40
2023-02-18T13:39:51.164Z,3.78
2023-02-18T13:42:33.751Z,3.50
2023-02-18T13:45:18.971Z,3.10
2023-02-18T13:50:27.572Z,3.58
2023-02-18T13:52:59.551Z,4.15
2023-02-18T13:55:35.512Z,3.75
2023-02-18T13:58:02.905Z,3.38
2023-02-18T14:00:36.809Z,2.90
2023-02-18T14:03:19.841Z,3.07
2023-02-18T14:05:47.254Z,3.00
2023-02-18T14:08:15.223Z,2.75
2023-02-18T14:11:03.897Z,2.78
2023-02-18T14:13:40.404Z,3.30
2023-02-18T14:16:08.110Z,2.70
2023-02-18T14:18:50.318Z,2.55
2023-02-18T14:21:22.571Z,3.10
2023-02-18T14:23:57.613Z,2.30
2023-02-18T14:26:29.406Z,2.55
2023-02-18T14:28:59.699Z,2.40
2023-02-18T14:31:44.914Z,2.17
2023-02-18T14:34:42.626Z,2.10
2023-02-18T14:37:28.993Z,1.80
2023-02-18T14:39:59.930Z,2.30
2023-02-18T14:42:35.870Z,1.80
2023-02-18T14:45:15.426Z,1.58
2023-02-18T14:47:51.523Z,1.80
2023-02-18T14:50:19.546Z,2.33
2023-02-18T14:52:49.229Z,2.55
2023-02-18T14:55:18.516Z,1.83
2023-02-18T14:57:49.279Z,2.28
2023-02-18T15:00:17.701Z,2.20
2023-02-18T15:02:45.059Z,2.28
2023-02-18T15:05:13.942Z,2.30
2023-02-18T15:07:41.474Z,2.60
2023-02-18T15:10:14.654Z,2.40
2023-02-18T15:12:42.120Z,2.30
2023-02-18T15:15:14.708Z,2.08
2023-02-18T15:17:45.689Z,2.45
2023-02-18T15:20:13.338Z,2.78
2023-02-18T15:22:40.879Z,2.40
2023-02-18T15:25:11.226Z,2.50
2023-02-18T15:27:40.050Z,2.30
2023-02-18T15:30:17.640Z,2.65
2023-02-18T15:32:46.852Z,2.35
2023-02-18T15:35:16.182Z,2.65
2023-02-18T15:37:45.598Z,3.08
2023-02-18T15:40:13.968Z,2.92
2023-02-18T15:42:41.300Z,2.40
2023-02-18T15:45:16.785Z,2.58
2023-02-18T15:47:46.715Z,2.10
2023-02-18T15:50:18.101Z,2.60
2023-02-18T15:52:45.546Z,2.65
2023-02-18T15:55:14.744Z,2.53
2023-02-18T15:57:42.959Z,2.78
2023-02-18T16:00:15.167Z,2.40
2023-02-18T16:02:53.321Z,2.28
2023-02-18T16:05:25.032Z,2.88
2023-02-18T16:07:53.695Z,2.70
2023-02-18T16:10:22.175Z,3.10
2023-02-18T16:12:52.456Z,2.70
2023-02-18T16:15:24.314Z,3.15
2023-02-18T16:17:53.073Z,3.08
2023-02-18T16:20:27.143Z,2.95
2023-02-18T16:22:55.640Z,3.15
2023-02-18T16:25:24.254Z,2.88
2023-02-18T16:27:52.972Z,3.20
2023-02-18T16:30:22.058Z,3.58
2023-02-18T16:32:50.010Z,3.45
2023-02-18T16:35:19.073Z,3.28
2023-02-18T16:37:47.907Z,2.92
2023-02-18T16:40:24.805Z,2.47
2023-02-18T16:42:52.454Z,2.85
2023-02-18T16:45:19.924Z,3.10
2023-02-18T16:47:48.223Z,3.13
2023-02-18T16:50:17.908Z,3.10
2023-02-18T16:52:47.191Z,3.40
2023-02-18T16:55:18.123Z,2.88
2023-02-18T16:57:48.048Z,4.03
2023-02-18T17:00:16.583Z,3.42
2023-02-18T17:02:44.478Z,3.60
2023-02-18T17:05:26.024Z,3.58
2023-02-18T17:07:55.909Z,3.92
2023-02-18T17:10:23.672Z,4.38
2023-02-18T17:12:51.029Z,4.00
2023-02-18T17:15:24.622Z,3.78
2023-02-18T17:17:51.915Z,4.55
2023-02-18T17:20:19.401Z,4.88
2023-02-18T17:22:46.777Z,4.90
2023-02-18T17:25:20.396Z,4.85
2023-02-18T17:27:48.197Z,4.93
2023-02-18T17:30:16.161Z,5.13
2023-02-18T17:32:43.762Z,4.43
2023-02-18T17:35:15.860Z,4.88
2023-02-18T17:37:43.625Z,4.00
2023-02-18T17:40:14.049Z,4.38
2023-02-18T17:42:43.094Z,5.35
2023-02-18T17:45:17.582Z,5.53
2023-02-18T17:50:12.562Z,6.80
2023-02-18T17:52:39.867Z,7.05
2023-02-18T17:55:15.879Z,8.15
2023-02-18T17:57:45.730Z,7.15
2023-02-18T18:00:13.746Z,8.82
2023-02-18T18:02:41.050Z,9.05
2023-02-18T18:05:14.323Z,9.95
2023-02-18T18:07:41.621Z,10.55
2023-02-18T18:10:10.291Z,9.70
2023-02-18T18:12:37.644Z,10.18
2023-02-18T18:15:14.616Z,9.05
2023-02-18T18:17:42.042Z,8.75
2023-02-18T18:20:09.735Z,8.10
2023-02-18T18:22:37.046Z,9.95
2023-02-18T18:25:10.802Z,7.03
2023-02-18T18:27:39.844Z,9.25
2023-02-18T18:30:09.946Z,6.22
2023-02-18T18:32:37.311Z,8.52
2023-02-18T18:35:04.945Z,7.65
2023-02-18T18:37:32.425Z,7.72
2023-02-18T18:40:00.046Z,7.97
2023-02-18T18:42:27.314Z,7.88
2023-02-18T18:44:54.713Z,7.68
2023-02-18T18:47:23.462Z,8.00
2023-02-18T18:49:51.103Z,7.65
2023-02-18T18:52:19.247Z,7.88
2023-02-18T18:54:46.535Z,8.50
2023-02-18T18:57:14.004Z,8.18
2023-02-18T18:59:41.337Z,7.18
2023-02-18T19:02:14.549Z,7.95
2023-02-18T19:04:43.210Z,7.60
2023-02-18T19:07:10.515Z,6.88
2023-02-18T19:09:38.075Z,6.40
2023-02-18T19:12:05.699Z,7.72
2023-02-18T19:14:33.439Z,8.02
2023-02-18T19:17:00.796Z,8.07
2023-02-18T19:19:28.776Z,7.10
2023-02-18T19:21:57.406Z,7.80
2023-02-18T19:24:24.832Z,6.47
2023-02-18T19:26:52.209Z,7.97
2023-02-18T19:29:23.164Z,7.90
2023-02-18T19:31:50.864Z,7.05
2023-02-18T19:34:18.218Z,7.68
2023-02-18T19:36:46.546Z,8.25
2023-02-18T19:39:15.218Z,6.80
2023-02-18T19:41:42.649Z,37.30
2023-02-18T19:44:10.079Z,6.90
2023-02-18T19:46:37.500Z,6.70
2023-02-18T19:49:04.800Z,7.65
2023-02-18T19:51:32.117Z,6.20
2023-02-18T19:53:59.408Z,6.90
2023-02-18T19:56:28.039Z,7.30
2023-02-18T19:58:56.057Z,8.23
2023-02-18T20:01:23.433Z,6.82
2023-02-18T20:03:50.741Z,6.63
2023-02-18T20:06:18.880Z,6.75
2023-02-18T20:08:46.592Z,6.53
2023-02-18T20:11:13.948Z,6.75
2023-02-18T20:13:42.739Z,6.78
2023-02-18T20:16:10.604Z,6.32
2023-02-18T20:18:38.146Z,6.68
2023-02-18T20:21:06.108Z,6.85
2023-02-18T20:23:33.589Z,6.45
2023-02-18T20:26:03.990Z,6.45
2023-02-18T20:28:31.359Z,6.18
2023-02-18T20:31:06.121Z,6.28
2023-02-18T20:36:02.470Z,5.75
2023-02-18T20:38:29.753Z,6.38
2023-02-18T20:40:57.114Z,6.10
2023-02-18T20:43:26.091Z,6.03
2023-02-18T20:45:53.354Z,5.78
2023-02-18T20:48:21.983Z,6.32
2023-02-18T20:50:49.290Z,6.32
2023-02-18T20:53:16.586Z,5.97
2023-02-18T20:55:47.155Z,5.60
2023-02-18T20:58:14.486Z,6.05
2023-02-18T21:00:41.933Z,6.03
2023-02-18T21:03:09.444Z,6.07
2023-02-18T21:05:38.203Z,4.82
2023-02-18T21:08:05.603Z,6.00
2023-02-18T21:10:32.909Z,5.38
2023-02-18T21:13:00.245Z,5.45
2023-02-18T21:15:27.891Z,5.28
2023-02-18T21:17:55.195Z,4.78
2023-02-18T21:20:22.569Z,4.60
2023-02-18T21:22:51.951Z,4.30
2023-02-18T21:25:19.321Z,4.22
2023-02-18T21:27:46.638Z,4.53
2023-02-18T21:30:14.276Z,3.85
2023-02-18T21:32:41.696Z,4.80
2023-02-18T21:35:09.198Z,5.35
2023-02-18T21:37:36.845Z,4.60
2023-02-18T21:40:05.730Z,4.57
2023-02-18T21:42:34.513Z,4.82
2023-02-18T21:45:02.879Z,4.85
2023-02-18T21:47:30.184Z,4.43
2023-02-18T21:49:57.747Z,4.55
2023-02-18T21:52:26.930Z,4.72
2023-02-18T21:54:54.206Z,5.35
2023-02-18T21:57:22.982Z,5.07
2023-02-18T21:59:50.287Z,3.90
2023-02-18T22:02:18.880Z,4.57
2023-02-18T22:04:46.534Z,4.53
2023-02-18T22:07:14.115Z,4.50
2023-02-18T22:09:41.629Z,4.32
2023-02-18T22:12:09.083Z,4.25
2023-02-18T22:14:37.687Z,4.32
2023-02-18T22:17:05.229Z,4.15
2023-02-18T22:19:32.682Z,4.35
2023-02-18T22:22:00.349Z,3.50
2023-02-18T22:24:27.653Z,4.30
2023-02-18T22:26:55.077Z,4.53
2023-02-18T22:29:23.032Z,4.10
2023-02-18T22:31:53.150Z,5.32
2023-02-18T22:34:20.926Z,4.93
2023-02-18T22:36:48.539Z,5.28
2023-02-18T22:39:16.804Z,5.50
2023-02-18T22:41:44.104Z,4.88
2023-02-18T22:44:12.737Z,5.32
2023-02-18T22:46:40.052Z,4.70
2023-02-18T22:49:09.141Z,6.32
2023-02-18T22:51:38.290Z,5.25
2023-02-18T22:54:06.120Z,6.75
2023-02-18T22:56:33.721Z,6.53
2023-02-18T22:59:01.023Z,5.88
2023-02-18T23:01:29.513Z,7.32
2023-02-18T23:03:57.394Z,7.22
2023-02-18T23:06:26.452Z,6.65
2023-02-18T23:08:54.455Z,7.30
2023-02-18T23:11:22.217Z,7.28
2023-02-18T23:14:10.242Z,7.65
2023-02-18T23:16:52.116Z,7.45
2023-02-18T23:19:19.413Z,7.47
2023-02-18T23:21:48.313Z,7.47
2023-02-18T23:24:15.747Z,8.05
2023-02-18T23:26:43.049Z,8.40
2023-02-18T23:29:10.770Z,7.90
2023-02-18T23:31:38.399Z,8.35
2023-02-18T23:34:06.962Z,8.38
2023-02-18T23:36:35.391Z,8.80
2023-02-18T23:39:05.361Z,8.50
2023-02-18T23:41:32.861Z,9.68
2023-02-18T23:44:00.141Z,9.77
2023-02-18T23:46:28.009Z,9.45
2023-02-18T23:48:55.334Z,9.13
2023-02-18T23:51:23.356Z,10.60
2023-02-18T23:53:51.206Z,9.35
2023-02-18T23:56:21.020Z,10.25
2023-02-18T23:58:52.094Z,10.40
